Terminal Aerodrome Forecast
Issued by NWS

Home | Current Version | Previous Version | Text Only | Print | Product List | Glossary On
Versions: 1 2 3 4 5 6 7 8 9 10 11 12 13 14 15 16 17 18 19 20 21 22 23 24 25 26
000
FTUS46 KMTR 251122
TAFOAK
TAF
KOAK 251122Z 2512/2618 34005KT P6SM FEW010 SCT200
     FM251300 31004KT P6SM SCT012 SCT200
     FM251600 27008KT P6SM FEW012 SCT200
     FM252000 29015KT P6SM FEW200
     FM260300 27010KT P6SM FEW250
     FM261100 28008KT P6SM SCT015 SCT200=

USA.gov is the U.S. government's official web portal to all federal, state and local government web resources and services.